Pagrindinis puslapis
METAR-TAF:

METAR-TAF

Oro uostai :

Winston Field

Snyder, Teksasas, Jungtinės Amerikos Valstijos

platuma: 32-41-36N, ilguma: 100-57-01W, Aukštis: 741 m

Dabartinis oras

Ataskaita buvo paskelbta 21 minutes, ne 22:35 UTC
Vėjas 16 kt iš Vakarų su gūsio iki 29 kt
Temperatūra 27°C
Drėgmė 12%
Slėgis 1010 hPa
Matomumas: 16.1 km
Giedras dangus

METAR: KSNK 302235Z AUTO 27016G29KT 10SM CLR 27/M05 A2983 RMK AO2 T02681047

Laikas: 17:56 (22:56 UTC)


TAF: trūkstamas

Orai ataskaitas ir orų prognozės (METAR, TAF).

turimą stotys yra geltonos ir raudonos taškus žemėlapyje.

Perkelti pele per norėdami pamatyti stoties vardą.

Tada spustelėkite, norėdami matyti oro stebėjimo ir prognozės.

Norėdami pakeisti žemėlapį: spustelėkite ant žalios mygtukų su juodo kryžiaus žemyn,; žalią mygtuką su brūkšneliu, jei norite nutolinti; arba žalių rodyklių gretimoms žemėlapius.


METAR-TAF: